createdAt,value
2022-08-26T00:04:41.366Z,12.41
2022-08-26T00:09:47.294Z,14.08
2022-08-26T00:14:52.110Z,13.73
2022-08-26T00:19:55.114Z,15.25
2022-08-26T00:24:58.504Z,16.51
2022-08-26T00:30:04.945Z,16.32
2022-08-26T00:35:10.666Z,17.44
2022-08-26T00:40:18.509Z,17.09
2022-08-26T00:45:23.806Z,17.41
2022-08-26T00:50:31.965Z,17.94
2022-08-26T00:55:39.030Z,17.93
2022-08-26T01:00:45.241Z,17.61
2022-08-26T01:05:48.468Z,17.86
2022-08-26T01:10:52.595Z,17.57
2022-08-26T01:16:04.211Z,17.86
2022-08-26T01:21:16.380Z,17.49
2022-08-26T01:26:26.165Z,17.84
2022-08-26T01:31:32.804Z,17.00
2022-08-26T01:36:38.380Z,17.74
2022-08-26T01:41:44.197Z,18.16
2022-08-26T01:46:49.818Z,18.07
2022-08-26T01:51:56.162Z,18.14
2022-08-26T01:57:02.876Z,17.80
2022-08-26T02:02:05.966Z,17.29
2022-08-26T02:07:10.064Z,17.22
2022-08-26T02:12:16.479Z,16.93
2022-08-26T02:17:23.580Z,16.41
2022-08-26T02:22:26.799Z,15.98
2022-08-26T02:27:35.138Z,14.72
2022-08-26T02:32:38.519Z,13.91
2022-08-26T02:37:43.637Z,13.62
2022-08-26T02:42:48.234Z,12.53
2022-08-26T02:47:51.692Z,12.04
2022-08-26T02:52:56.009Z,11.74
2022-08-26T02:58:02.272Z,11.65
2022-08-26T03:03:05.912Z,11.20
2022-08-26T03:08:11.997Z,11.08
2022-08-26T03:13:16.893Z,10.62
2022-08-26T03:18:20.108Z,10.42
2022-08-26T03:23:23.704Z,10.85
2022-08-26T03:28:28.362Z,11.40
2022-08-26T03:33:31.546Z,11.25
2022-08-26T03:38:34.467Z,10.80
2022-08-26T03:43:38.929Z,10.33
2022-08-26T03:48:43.717Z,10.20
2022-08-26T03:53:48.433Z,9.84
2022-08-26T03:58:53.081Z,9.77
2022-08-26T04:04:00.333Z,10.27
2022-08-26T04:09:06.495Z,10.62
2022-08-26T04:14:17.558Z,9.92
2022-08-26T04:19:24.264Z,9.46
2022-08-26T04:24:27.967Z,9.62
2022-08-26T04:29:32.726Z,9.31
2022-08-26T04:34:36.252Z,9.30
2022-08-26T04:39:40.569Z,9.10
2022-08-26T04:44:46.714Z,8.89
2022-08-26T04:49:50.222Z,10.41
2022-08-26T04:54:53.576Z,11.43
2022-08-26T04:59:58.241Z,12.26
2022-08-26T05:05:01.172Z,11.30
2022-08-26T05:10:05.264Z,12.20
2022-08-26T05:15:13.505Z,12.28
2022-08-26T05:20:16.466Z,12.54
2022-08-26T05:25:20.706Z,13.26
2022-08-26T05:30:25.525Z,13.96
2022-08-26T05:35:32.200Z,13.36
2022-08-26T05:40:38.654Z,13.71
2022-08-26T05:45:45.871Z,11.66
2022-08-26T05:50:51.172Z,6.04
2022-08-26T05:55:55.183Z,4.41
2022-08-26T06:01:02.869Z,8.52
2022-08-26T06:06:08.214Z,2.32
2022-08-26T06:11:18.330Z,-2.94
2022-08-26T06:16:25.037Z,-1.92
2022-08-26T06:21:32.033Z,118.86
2022-08-26T06:26:36.624Z,110.80
2022-08-26T06:31:41.471Z,112.69
2022-08-26T06:36:45.254Z,107.91
2022-08-26T06:41:49.226Z,104.44
2022-08-26T06:46:53.845Z,102.78
2022-08-26T06:52:00.371Z,105.17
2022-08-26T06:57:03.884Z,102.76
2022-08-26T07:02:08.444Z,102.70
2022-08-26T07:07:14.532Z,103.38
2022-08-26T07:12:17.894Z,103.11
2022-08-26T07:17:22.640Z,102.58
2022-08-26T07:22:28.127Z,103.68
2022-08-26T07:27:31.935Z,103.88
2022-08-26T07:32:37.915Z,100.35
2022-08-26T07:37:41.112Z,101.55
2022-08-26T07:42:44.397Z,101.22
2022-08-26T07:47:49.009Z,103.49
2022-08-26T07:52:51.932Z,102.40
2022-08-26T07:57:56.281Z,106.56
2022-08-26T08:03:01.224Z,109.55
2022-08-26T08:08:26.664Z,108.33
2022-08-26T08:13:30.272Z,104.82
2022-08-26T08:18:36.978Z,103.50
2022-08-26T08:23:40.154Z,100.94
2022-08-26T08:28:43.254Z,97.69
2022-08-26T08:33:48.368Z,100.76
2022-08-26T08:38:54.660Z,98.76
2022-08-26T08:44:01.167Z,96.29
2022-08-26T08:49:06.350Z,95.46
2022-08-26T08:54:10.924Z,91.92
2022-08-26T08:59:17.439Z,88.93
2022-08-26T09:04:43.588Z,81.51
2022-08-26T09:09:51.057Z,78.07
2022-08-26T09:14:58.247Z,78.99
2022-08-26T09:20:13.459Z,77.59
2022-08-26T09:25:16.509Z,71.35
2022-08-26T09:30:26.844Z,70.84
2022-08-26T09:35:33.647Z,71.39
2022-08-26T09:40:37.337Z,69.67
2022-08-26T09:45:50.192Z,71.83
2022-08-26T09:50:59.476Z,73.10
2022-08-26T09:56:16.821Z,75.01
2022-08-26T10:01:30.933Z,71.38
2022-08-26T10:06:39.306Z,71.90
2022-08-26T10:11:47.657Z,68.40
2022-08-26T10:16:54.727Z,66.89
2022-08-26T10:22:04.413Z,70.30
2022-08-26T10:27:19.922Z,72.63
2022-08-26T10:32:31.466Z,67.10
2022-08-26T10:37:39.410Z,66.13
2022-08-26T10:42:46.465Z,66.46
2022-08-26T10:47:54.676Z,62.70
2022-08-26T10:53:06.102Z,63.89
2022-08-26T10:58:39.046Z,63.89
2022-08-26T11:03:53.735Z,64.21
2022-08-26T11:09:05.549Z,62.53
2022-08-26T11:14:13.550Z,61.90
2022-08-26T11:20:00.779Z,61.31
2022-08-26T11:25:24.444Z,62.43
2022-08-26T11:30:57.027Z,59.87
2022-08-26T11:36:01.549Z,61.57
2022-08-26T11:41:24.524Z,60.11
2022-08-26T11:46:31.517Z,57.48
2022-08-26T11:51:39.704Z,55.59
2022-08-26T11:56:47.370Z,56.84
2022-08-26T12:01:52.118Z,56.58
2022-08-26T12:06:56.383Z,58.01
2022-08-26T12:12:16.117Z,56.01
2022-08-26T12:17:26.468Z,56.16
2022-08-26T12:22:32.523Z,54.05
2022-08-26T12:27:40.363Z,56.50
2022-08-26T12:32:57.149Z,55.61
2022-08-26T12:38:02.393Z,57.10
2022-08-26T12:43:08.376Z,52.46
2022-08-26T12:48:14.197Z,52.90
2022-08-26T12:53:22.310Z,52.59
2022-08-26T12:58:30.199Z,52.97
2022-08-26T13:03:43.916Z,52.28
2022-08-26T13:08:52.180Z,51.68
2022-08-26T13:14:00.693Z,51.92
2022-08-26T13:19:10.431Z,54.05
2022-08-26T13:24:15.665Z,53.58
2022-08-26T13:29:21.466Z,54.92
2022-08-26T13:34:24.823Z,52.15
2022-08-26T13:39:28.041Z,51.98
2022-08-26T13:44:33.104Z,52.01
2022-08-26T13:49:36.185Z,51.66
2022-08-26T13:54:39.261Z,52.40
2022-08-26T13:59:44.436Z,52.80
2022-08-26T14:04:47.686Z,56.23
2022-08-26T14:09:50.946Z,54.39
2022-08-26T14:14:55.433Z,52.65
2022-08-26T14:19:58.464Z,53.13
2022-08-26T14:25:02.322Z,53.75
2022-08-26T14:30:08.858Z,54.85
2022-08-26T14:35:16.847Z,56.36
2022-08-26T14:40:22.395Z,56.46
2022-08-26T14:45:28.415Z,55.45
2022-08-26T14:50:32.912Z,54.96
2022-08-26T14:55:39.223Z,55.24
2022-08-26T15:00:44.106Z,54.56
2022-08-26T15:05:48.427Z,52.90
2022-08-26T15:10:51.410Z,52.14
2022-08-26T15:15:56.068Z,52.04
2022-08-26T15:20:59.454Z,53.01
2022-08-26T15:26:02.633Z,52.81
2022-08-26T15:31:07.465Z,53.53
2022-08-26T15:36:11.879Z,52.99
2022-08-26T15:41:14.985Z,55.24
2022-08-26T15:46:20.073Z,55.07
2022-08-26T15:51:24.927Z,55.83
2022-08-26T15:56:29.869Z,55.83
2022-08-26T16:01:35.195Z,56.11
2022-08-26T16:06:39.992Z,56.87
2022-08-26T16:11:43.223Z,57.05
2022-08-26T16:16:48.053Z,57.83
2022-08-26T16:21:52.020Z,58.65
2022-08-26T16:26:55.339Z,58.29
2022-08-26T16:31:59.893Z,58.79
2022-08-26T16:37:03.363Z,58.15
2022-08-26T16:42:07.296Z,58.34
2022-08-26T16:47:12.559Z,59.12
2022-08-26T16:52:15.915Z,59.09
2022-08-26T16:57:18.903Z,59.89
2022-08-26T17:02:23.438Z,60.58
2022-08-26T17:07:28.599Z,60.34
2022-08-26T17:12:32.008Z,61.04
2022-08-26T17:17:36.894Z,61.79
2022-08-26T17:22:41.534Z,62.41
2022-08-26T17:27:44.480Z,64.27
2022-08-26T17:32:49.461Z,67.55
2022-08-26T17:37:53.079Z,65.91
2022-08-26T17:42:56.409Z,69.14
2022-08-26T17:48:00.939Z,71.04
2022-08-26T17:53:04.027Z,73.72
2022-08-26T17:58:07.300Z,73.83
2022-08-26T18:03:11.989Z,75.16
2022-08-26T18:08:14.805Z,75.89
2022-08-26T18:13:19.081Z,77.84
2022-08-26T18:18:23.720Z,79.81
2022-08-26T18:23:26.789Z,79.11
2022-08-26T18:28:30.029Z,80.43
2022-08-26T18:33:36.588Z,80.27
2022-08-26T18:38:39.618Z,81.49
2022-08-26T18:43:46.090Z,82.15
2022-08-26T18:48:50.732Z,82.69
2022-08-26T18:53:54.433Z,83.78
2022-08-26T18:58:59.242Z,88.52
2022-08-26T19:04:05.589Z,88.02
2022-08-26T19:09:10.439Z,88.18
2022-08-26T19:14:16.269Z,87.48
2022-08-26T19:19:24.061Z,87.44
2022-08-26T19:24:28.206Z,88.44
2022-08-26T19:29:34.106Z,88.64
2022-08-26T19:34:38.535Z,87.64
2022-08-26T19:39:41.664Z,88.48
2022-08-26T19:45:03.238Z,88.42
2022-08-26T19:50:12.070Z,85.83
2022-08-26T19:55:17.417Z,88.31
2022-08-26T20:00:23.942Z,88.76
2022-08-26T20:05:28.676Z,90.34
2022-08-26T20:10:31.529Z,90.36
2022-08-26T20:15:34.662Z,92.47
2022-08-26T20:20:58.162Z,90.82
2022-08-26T20:26:01.618Z,93.36
2022-08-26T20:31:04.629Z,92.61
2022-08-26T20:36:10.642Z,90.43
2022-08-26T20:41:14.240Z,90.17
2022-08-26T20:46:19.552Z,89.20
2022-08-26T20:51:27.401Z,87.57
2022-08-26T20:56:30.396Z,89.56
2022-08-26T21:01:35.271Z,87.76
2022-08-26T21:06:39.843Z,86.22
2022-08-26T21:11:45.839Z,85.92
2022-08-26T21:16:49.287Z,85.90
2022-08-26T21:21:53.997Z,85.22
2022-08-26T21:26:57.232Z,85.79
2022-08-26T21:32:00.370Z,85.83
2022-08-26T21:37:05.580Z,85.58
2022-08-26T21:42:18.339Z,85.77
2022-08-26T21:47:21.736Z,85.26
2022-08-26T21:52:26.945Z,85.45
2022-08-26T21:57:30.394Z,86.09
2022-08-26T22:02:33.564Z,86.32
2022-08-26T22:07:38.287Z,86.57
2022-08-26T22:12:42.096Z,87.22
2022-08-26T22:17:45.803Z,87.85
2022-08-26T22:22:50.509Z,87.75
2022-08-26T22:27:53.896Z,89.24
2022-08-26T22:32:57.682Z,92.48
2022-08-26T22:38:02.142Z,94.14
2022-08-26T22:43:06.209Z,94.17
2022-08-26T22:48:10.811Z,97.59
2022-08-26T22:53:16.490Z,99.42
2022-08-26T22:58:21.078Z,103.43
2022-08-26T23:03:33.335Z,103.72
2022-08-26T23:08:38.447Z,108.31
2022-08-26T23:13:41.805Z,110.60
2022-08-26T23:18:44.859Z,110.17
2022-08-26T23:23:49.255Z,111.06
2022-08-26T23:28:53.634Z,111.72
2022-08-26T23:34:14.939Z,113.54
2022-08-26T23:39:19.646Z,113.50
2022-08-26T23:44:22.896Z,117.86
2022-08-26T23:49:27.089Z,-5.24
2022-08-26T23:54:32.701Z,-5.73
2022-08-26T23:59:38.240Z,116.81
